EGNV/MME METAR and TAF weather

Enter ICAO airport designator
Station Type Date Time Source
EGNV METAR 2022/11/30 15:50 UTC NOAA

EGNV 301550Z 20007KT 3000 BR BKN005 OVC011 04/03 Q1026


Station Type Date Time Source
EGNV Decoded METAR 2022/11/30 15:50 UTC NOAA

Tees-Side, United Kingdom (EGNV) 54-31N 001-25W
Nov 30, 2022 - 10:50 AM EST / 2022.11.30 1550 UTC
Wind: from the SSW (200 degrees) at 8 MPH (7 KT):0
Visibility: 1 mile(s):0
Sky conditions: overcast
Weather: mist
Temperature: 39 F (4 C)
Dew Point: 37 F (3 C)
Relative Humidity: 93%
Pressure (altimeter): 30.30 in. Hg (1026 hPa)
ob: EGNV 301550Z 20007KT 3000 BR BKN005 OVC011 04/03 Q1026
cycle: 16

Station Type Date Time Source
EGNV TAF 2022/10/10 18:27 UTC NOAA

TAF TAF EGNV 101724Z 1018/1121 CNL

Example: see airport list